createdAt,value
2022-09-06T00:02:11.350Z,12.27
2022-09-06T00:05:02.117Z,11.73
2022-09-06T00:07:51.545Z,12.53
2022-09-06T00:10:42.272Z,12.30
2022-09-06T00:13:31.971Z,12.87
2022-09-06T00:16:29.682Z,12.30
2022-09-06T00:19:19.863Z,12.33
2022-09-06T00:22:10.726Z,12.53
2022-09-06T00:25:00.146Z,12.77
2022-09-06T00:27:49.641Z,12.30
2022-09-06T00:30:39.071Z,12.60
2022-09-06T00:33:28.570Z,12.53
2022-09-06T00:36:18.446Z,12.27
2022-09-06T00:39:09.211Z,12.70
2022-09-06T00:41:58.554Z,13.30
2022-09-06T00:44:48.357Z,13.47
2022-09-06T00:47:41.965Z,13.10
2022-09-06T00:50:31.500Z,14.13
2022-09-06T00:53:21.352Z,13.90
2022-09-06T00:56:12.341Z,13.70
2022-09-06T00:59:02.635Z,13.57
2022-09-06T01:01:52.450Z,13.87
2022-09-06T01:04:45.168Z,13.37
2022-09-06T01:08:02.032Z,13.37
2022-09-06T01:11:19.917Z,13.60
2022-09-06T01:14:27.714Z,13.50
2022-09-06T01:17:31.104Z,13.57
2022-09-06T01:21:03.831Z,13.13
2022-09-06T01:24:33.827Z,12.90
2022-09-06T01:28:13.248Z,13.20
2022-09-06T01:31:16.644Z,12.33
2022-09-06T01:34:21.700Z,13.00
2022-09-06T01:37:14.234Z,12.60
2022-09-06T01:40:04.079Z,13.00
2022-09-06T01:42:54.557Z,12.30
2022-09-06T01:46:01.506Z,13.60
2022-09-06T01:49:11.975Z,12.70
2022-09-06T01:52:15.407Z,12.47
2022-09-06T01:55:22.308Z,12.40
2022-09-06T01:58:34.830Z,12.03
2022-09-06T02:01:32.864Z,11.90
2022-09-06T02:04:28.587Z,13.20
2022-09-06T02:07:22.925Z,13.43
2022-09-06T02:10:20.537Z,12.70
2022-09-06T02:13:12.126Z,12.63
2022-09-06T02:16:05.137Z,12.63
2022-09-06T02:19:01.997Z,13.63
2022-09-06T02:21:53.714Z,13.07
2022-09-06T02:24:45.726Z,13.67
2022-09-06T02:27:35.114Z,14.03
2022-09-06T02:30:24.994Z,12.90
2022-09-06T02:33:20.173Z,13.60
2022-09-06T02:36:11.184Z,12.90
2022-09-06T02:39:01.909Z,12.20
2022-09-06T02:41:51.262Z,12.77
2022-09-06T02:44:40.657Z,12.83
2022-09-06T02:47:30.002Z,13.10
2022-09-06T02:50:19.347Z,14.30
2022-09-06T02:53:13.914Z,13.60
2022-09-06T02:56:04.153Z,13.20
2022-09-06T02:58:53.470Z,13.20
2022-09-06T03:01:43.583Z,13.20
2022-09-06T03:04:32.978Z,12.97
2022-09-06T03:07:22.320Z,13.20
2022-09-06T03:10:13.067Z,14.40
2022-09-06T03:13:02.472Z,13.70
2022-09-06T03:15:52.869Z,13.77
2022-09-06T03:18:42.392Z,13.97
2022-09-06T03:21:32.162Z,13.87
2022-09-06T03:24:21.585Z,13.60
2022-09-06T03:27:12.420Z,13.30
2022-09-06T03:30:01.891Z,13.63
2022-09-06T03:32:51.416Z,13.27
2022-09-06T03:35:41.887Z,13.50
2022-09-06T03:38:31.957Z,13.30
2022-09-06T03:41:21.533Z,13.47
2022-09-06T03:44:12.344Z,14.13
2022-09-06T03:47:01.861Z,13.70
2022-09-06T03:49:51.604Z,13.10
2022-09-06T03:52:41.708Z,13.03
2022-09-06T03:55:31.083Z,13.57
2022-09-06T03:58:23.171Z,13.20
2022-09-06T04:01:14.247Z,13.37
2022-09-06T04:04:04.311Z,13.93
2022-09-06T04:06:53.613Z,13.97
2022-09-06T04:09:43.004Z,13.67
2022-09-06T04:12:32.365Z,13.37
2022-09-06T04:15:21.849Z,13.17
2022-09-06T04:18:12.564Z,13.50
2022-09-06T04:21:02.305Z,13.20
2022-09-06T04:23:51.648Z,14.00
2022-09-06T04:26:41.193Z,14.20
2022-09-06T04:29:30.608Z,13.13
2022-09-06T04:32:19.926Z,13.23
2022-09-06T04:35:11.105Z,13.60
2022-09-06T04:38:02.075Z,13.57
2022-09-06T04:40:51.510Z,14.00
2022-09-06T04:43:40.959Z,13.37
2022-09-06T04:46:31.630Z,14.10
2022-09-06T04:49:20.961Z,14.57
2022-09-06T04:52:12.227Z,14.00
2022-09-06T04:55:01.693Z,14.00
2022-09-06T04:57:51.406Z,13.67
2022-09-06T05:00:42.371Z,14.13
2022-09-06T05:03:31.805Z,13.20
2022-09-06T05:06:23.970Z,13.97
2022-09-06T05:09:14.939Z,13.97
2022-09-06T05:12:05.209Z,13.33
2022-09-06T05:14:54.558Z,13.10
2022-09-06T05:17:44.174Z,13.07
2022-09-06T05:20:33.788Z,12.83
2022-09-06T05:23:23.628Z,12.77
2022-09-06T05:26:14.354Z,13.33
2022-09-06T05:29:03.779Z,12.80
2022-09-06T05:31:53.136Z,13.57
2022-09-06T05:34:42.636Z,13.73
2022-09-06T05:37:31.954Z,13.03
2022-09-06T05:40:21.343Z,13.70
2022-09-06T05:43:12.100Z,13.20
2022-09-06T05:46:01.544Z,13.20
2022-09-06T05:48:55.038Z,12.60
2022-09-06T05:51:44.453Z,12.20
2022-09-06T05:54:33.783Z,12.80
2022-09-06T05:57:23.337Z,13.10
2022-09-06T06:00:15.839Z,12.43
2022-09-06T06:03:05.294Z,12.30
2022-09-06T06:05:54.609Z,12.43
2022-09-06T06:08:43.913Z,12.23
2022-09-06T06:11:33.385Z,12.20
2022-09-06T06:14:22.680Z,12.30
2022-09-06T06:17:13.405Z,12.40
2022-09-06T06:20:03.166Z,12.23
2022-09-06T06:22:52.482Z,12.80
2022-09-06T06:25:41.908Z,12.63
2022-09-06T06:28:31.229Z,11.93
2022-09-06T06:31:22.496Z,12.80
2022-09-06T06:34:13.437Z,12.20
2022-09-06T06:37:02.770Z,11.83
2022-09-06T06:39:52.180Z,11.87
2022-09-06T06:42:41.591Z,11.70
2022-09-06T06:45:31.649Z,11.70
2022-09-06T06:48:21.828Z,11.93
2022-09-06T06:51:14.672Z,11.60
2022-09-06T06:54:04.097Z,11.90
2022-09-06T06:56:53.488Z,12.23
2022-09-06T06:59:43.142Z,12.20
2022-09-06T07:02:32.790Z,11.40
2022-09-06T07:08:32.922Z,11.30
2022-09-06T07:11:24.390Z,11.20
2022-09-06T07:14:14.314Z,11.60
2022-09-06T07:17:07.420Z,11.70
2022-09-06T07:20:14.852Z,11.77
2022-09-06T07:26:20.851Z,11.60
2022-09-06T07:29:10.369Z,11.33
2022-09-06T07:32:15.737Z,11.10
2022-09-06T07:35:06.186Z,11.73
2022-09-06T07:37:57.046Z,11.60
2022-09-06T07:40:54.735Z,11.47
2022-09-06T07:43:45.658Z,11.60
2022-09-06T07:46:35.104Z,11.50
2022-09-06T07:49:24.539Z,11.07
2022-09-06T07:55:23.197Z,11.20
2022-09-06T07:58:12.522Z,11.10
2022-09-06T08:01:30.165Z,11.27
2022-09-06T08:04:19.640Z,11.50
2022-09-06T08:10:18.886Z,11.60
2022-09-06T08:13:08.201Z,10.90
2022-09-06T08:16:00.553Z,11.33
2022-09-06T08:18:54.340Z,11.53
2022-09-06T08:21:44.011Z,12.03
2022-09-06T08:24:35.765Z,11.00
2022-09-06T08:27:25.447Z,11.50
2022-09-06T08:30:15.306Z,10.97
2022-09-06T08:33:04.634Z,11.40
2022-09-06T08:35:59.528Z,11.27
2022-09-06T08:38:49.030Z,11.60
2022-09-06T08:41:49.650Z,11.17
2022-09-06T08:44:58.450Z,10.97
2022-09-06T08:47:49.916Z,11.40
2022-09-06T08:50:41.704Z,11.03
2022-09-06T08:53:32.639Z,10.87
2022-09-06T08:56:26.767Z,11.40
2022-09-06T08:59:17.753Z,10.83
2022-09-06T09:02:14.341Z,10.37
2022-09-06T09:05:07.681Z,10.17
2022-09-06T09:08:09.430Z,9.97
2022-09-06T09:11:04.962Z,10.03
2022-09-06T09:13:59.234Z,10.07
2022-09-06T09:16:52.122Z,9.77
2022-09-06T09:19:43.466Z,9.80
2022-09-06T09:22:33.097Z,9.50
2022-09-06T09:25:25.654Z,9.70
2022-09-06T09:28:21.218Z,9.33
2022-09-06T09:31:10.994Z,9.60
2022-09-06T09:34:04.570Z,9.70
2022-09-06T09:40:34.901Z,9.40
2022-09-06T09:43:27.984Z,9.67
2022-09-06T09:46:33.078Z,9.60
2022-09-06T09:49:31.020Z,9.10
2022-09-06T09:52:27.824Z,9.10
2022-09-06T09:55:17.471Z,9.07
2022-09-06T09:58:08.962Z,9.13
2022-09-06T10:01:18.986Z,8.83
2022-09-06T10:07:23.965Z,9.00
2022-09-06T10:10:16.132Z,8.90
2022-09-06T10:13:14.076Z,8.70
2022-09-06T10:16:04.177Z,9.00
2022-09-06T10:18:54.855Z,8.80
2022-09-06T10:21:44.179Z,8.75
2022-09-06T10:24:51.171Z,8.80
2022-09-06T10:28:12.633Z,8.40
2022-09-06T10:31:56.085Z,8.77
2022-09-06T10:35:18.261Z,8.65
2022-09-06T10:38:30.542Z,8.52
2022-09-06T10:41:36.068Z,8.85
2022-09-06T10:44:45.632Z,8.25
2022-09-06T10:47:56.084Z,8.40
2022-09-06T10:50:53.084Z,8.77
2022-09-06T10:53:49.795Z,8.40
2022-09-06T10:56:46.607Z,8.25
2022-09-06T10:59:38.861Z,8.50
2022-09-06T11:02:41.061Z,8.45
2022-09-06T11:08:47.014Z,8.43
2022-09-06T11:11:45.313Z,8.45
2022-09-06T11:14:36.586Z,8.50
2022-09-06T11:17:34.724Z,8.30
2022-09-06T11:20:32.143Z,8.30
2022-09-06T11:23:53.078Z,8.90
2022-09-06T11:26:45.913Z,8.60
2022-09-06T11:29:36.637Z,8.70
2022-09-06T11:32:40.276Z,8.40
2022-09-06T11:35:33.400Z,8.53
2022-09-06T11:38:27.352Z,8.93
2022-09-06T11:41:19.330Z,9.10
2022-09-06T11:44:10.769Z,9.30
2022-09-06T11:47:07.560Z,9.20
2022-09-06T11:49:56.937Z,9.23
2022-09-06T11:53:03.085Z,9.50
2022-09-06T11:56:11.848Z,9.40
2022-09-06T11:59:13.845Z,9.47
2022-09-06T12:02:07.996Z,9.60
2022-09-06T12:05:33.440Z,9.17
2022-09-06T12:08:33.497Z,9.30
2022-09-06T12:11:30.595Z,9.10
2022-09-06T12:14:34.250Z,9.40
2022-09-06T12:17:25.573Z,9.33
2022-09-06T12:21:04.269Z,9.43
2022-09-06T12:23:54.775Z,9.77
2022-09-06T12:26:55.553Z,10.20
2022-09-06T12:30:01.330Z,9.63
2022-09-06T12:32:53.463Z,9.63
2022-09-06T12:35:59.845Z,9.97
2022-09-06T12:39:13.287Z,9.90
2022-09-06T12:42:06.858Z,10.27
2022-09-06T12:44:57.321Z,10.83
2022-09-06T12:47:47.111Z,10.82
2022-09-06T12:50:37.506Z,11.10
2022-09-06T12:53:27.849Z,10.70
2022-09-06T12:56:23.033Z,9.83
2022-09-06T12:59:19.429Z,9.30
2022-09-06T13:02:14.802Z,9.20
2022-09-06T13:05:08.020Z,9.50
2022-09-06T13:08:02.427Z,9.20
2022-09-06T13:10:51.914Z,9.00
2022-09-06T13:13:49.742Z,9.80
2022-09-06T13:16:46.490Z,9.73
2022-09-06T13:19:38.341Z,9.20
2022-09-06T13:22:45.297Z,9.10
2022-09-06T13:25:34.709Z,9.17
2022-09-06T13:28:29.591Z,9.13
2022-09-06T13:31:25.323Z,9.20
2022-09-06T13:34:23.263Z,9.40
2022-09-06T13:37:13.361Z,9.27
2022-09-06T13:40:05.937Z,9.33
2022-09-06T13:43:02.434Z,9.13
2022-09-06T13:46:05.295Z,12.90
2022-09-06T13:48:58.232Z,11.00
2022-09-06T13:51:48.817Z,10.47
2022-09-06T13:54:39.196Z,10.43
2022-09-06T13:57:28.578Z,10.20
2022-09-06T14:00:18.607Z,9.20
2022-09-06T14:03:08.113Z,9.00
2022-09-06T14:06:00.312Z,9.07
2022-09-06T14:09:06.504Z,9.00
2022-09-06T14:11:57.100Z,9.40
2022-09-06T14:14:46.529Z,9.27
2022-09-06T14:17:36.040Z,9.17
2022-09-06T14:20:25.491Z,9.60
2022-09-06T14:23:16.360Z,9.47
2022-09-06T14:26:06.822Z,9.37
2022-09-06T14:28:57.207Z,9.50
2022-09-06T14:31:48.474Z,9.43
2022-09-06T14:34:38.001Z,9.30
2022-09-06T14:37:27.488Z,9.20
2022-09-06T14:40:18.788Z,9.10
2022-09-06T14:43:08.726Z,9.57
2022-09-06T14:46:05.449Z,9.43
2022-09-06T14:49:00.168Z,9.57
2022-09-06T14:51:49.625Z,9.33
2022-09-06T14:54:39.090Z,9.70
2022-09-06T14:57:30.390Z,9.40
2022-09-06T15:00:20.048Z,14.30
2022-09-06T15:03:09.493Z,12.20
2022-09-06T15:05:58.933Z,10.80
2022-09-06T15:08:49.022Z,10.20
2022-09-06T15:11:41.329Z,10.50
2022-09-06T15:14:32.763Z,10.43
2022-09-06T15:17:22.214Z,10.67
2022-09-06T15:20:12.970Z,10.10
2022-09-06T15:26:15.525Z,10.40
2022-09-06T15:29:05.089Z,10.77
2022-09-06T15:31:57.070Z,10.63
2022-09-06T15:34:46.497Z,11.20
2022-09-06T15:37:35.954Z,10.90
2022-09-06T15:40:26.741Z,10.87
2022-09-06T15:43:16.568Z,11.00
2022-09-06T15:46:06.421Z,10.87
2022-09-06T15:48:57.197Z,11.23
2022-09-06T15:51:47.567Z,11.20
2022-09-06T15:54:50.825Z,10.83
2022-09-06T15:57:40.326Z,11.17
2022-09-06T16:00:29.743Z,11.27
2022-09-06T16:03:19.288Z,11.10
2022-09-06T16:06:28.652Z,11.60
2022-09-06T16:09:18.502Z,11.73
2022-09-06T16:12:09.323Z,11.70
2022-09-06T16:15:00.248Z,11.37
2022-09-06T16:17:49.910Z,12.67
2022-09-06T16:20:39.392Z,11.63
2022-09-06T16:23:30.903Z,13.27
2022-09-06T16:26:21.819Z,12.33
2022-09-06T16:29:18.025Z,11.97
2022-09-06T16:32:07.829Z,11.97
2022-09-06T16:34:58.119Z,11.37
2022-09-06T16:37:47.656Z,11.50
2022-09-06T16:40:38.759Z,12.33
2022-09-06T16:43:28.647Z,12.83
2022-09-06T16:46:18.478Z,12.20
2022-09-06T16:49:08.073Z,12.33
2022-09-06T16:51:57.540Z,12.00
2022-09-06T16:54:47.002Z,11.40
2022-09-06T16:57:40.365Z,11.70
2022-09-06T17:00:29.883Z,12.30
2022-09-06T17:03:19.393Z,12.30
2022-09-06T17:06:09.620Z,12.40
2022-09-06T17:09:00.041Z,12.37
2022-09-06T17:11:50.654Z,12.00
2022-09-06T17:14:41.533Z,11.90
2022-09-06T17:17:30.114Z,12.47
2022-09-06T17:20:20.697Z,12.37
2022-09-06T17:23:10.223Z,12.20
2022-09-06T17:25:59.935Z,12.10
2022-09-06T17:28:50.756Z,11.70
2022-09-06T17:31:42.021Z,11.57
2022-09-06T17:34:31.697Z,11.33
2022-09-06T17:37:21.144Z,11.47
2022-09-06T17:40:12.046Z,11.73
2022-09-06T17:43:01.743Z,11.50
2022-09-06T17:45:51.235Z,11.60
2022-09-06T17:48:43.675Z,11.00
2022-09-06T17:51:34.500Z,11.10
2022-09-06T17:54:24.155Z,11.50
2022-09-06T17:57:13.649Z,11.20
2022-09-06T18:00:03.591Z,11.47
2022-09-06T18:03:13.047Z,11.53
2022-09-06T18:06:08.765Z,11.37
2022-09-06T18:09:04.780Z,11.97
2022-09-06T18:11:54.637Z,10.60
2022-09-06T18:14:44.131Z,11.10
2022-09-06T18:17:33.590Z,10.90
2022-09-06T18:20:24.127Z,11.27
2022-09-06T18:23:14.948Z,11.10
2022-09-06T18:26:07.036Z,11.40
2022-09-06T18:28:56.558Z,11.20
2022-09-06T18:31:46.325Z,11.20
2022-09-06T18:34:36.026Z,11.73
2022-09-06T18:37:26.425Z,11.63
2022-09-06T18:40:17.313Z,11.57
2022-09-06T18:43:06.737Z,11.53
2022-09-06T18:46:03.063Z,11.57
2022-09-06T18:48:52.822Z,11.90
2022-09-06T18:51:42.676Z,12.30
2022-09-06T18:54:32.770Z,11.90
2022-09-06T18:57:24.162Z,12.07
2022-09-06T19:00:15.500Z,11.80
2022-09-06T19:03:05.329Z,12.67
2022-09-06T19:05:54.783Z,11.60
2022-09-06T19:08:44.747Z,12.00
2022-09-06T19:11:35.202Z,11.70
2022-09-06T19:14:26.126Z,12.57
2022-09-06T19:17:15.543Z,12.03
2022-09-06T19:20:05.846Z,12.37
2022-09-06T19:22:55.269Z,12.00
2022-09-06T19:25:45.013Z,12.00
2022-09-06T19:28:35.618Z,11.73
2022-09-06T19:31:28.347Z,11.43
2022-09-06T19:34:17.835Z,11.43
2022-09-06T19:37:07.368Z,11.80
2022-09-06T19:39:57.647Z,12.10
2022-09-06T19:42:47.067Z,12.20
2022-09-06T19:45:39.286Z,12.10
2022-09-06T19:48:31.362Z,11.97
2022-09-06T19:51:21.766Z,11.83
2022-09-06T19:54:11.150Z,11.70
2022-09-06T19:57:00.612Z,12.03
2022-09-06T19:59:50.116Z,10.97
2022-09-06T20:02:39.534Z,11.63
2022-09-06T20:05:30.368Z,11.33
2022-09-06T20:08:20.580Z,11.43
2022-09-06T20:11:12.655Z,11.40
2022-09-06T20:14:02.777Z,11.53
2022-09-06T20:16:53.115Z,11.30
2022-09-06T20:19:42.583Z,11.67
2022-09-06T20:22:33.527Z,10.87
2022-09-06T20:25:22.997Z,11.20
2022-09-06T20:28:12.481Z,11.90
2022-09-06T20:31:04.223Z,11.47
2022-09-06T20:33:53.787Z,12.33
2022-09-06T20:36:43.271Z,12.30
2022-09-06T20:39:34.119Z,11.20
2022-09-06T20:42:23.650Z,11.40
2022-09-06T20:45:13.321Z,11.20
2022-09-06T20:48:03.150Z,12.17
2022-09-06T20:51:00.226Z,12.00
2022-09-06T20:53:54.213Z,11.77
2022-09-06T20:56:45.025Z,11.83
2022-09-06T20:59:34.618Z,11.83
2022-09-06T21:02:24.063Z,12.13
2022-09-06T21:05:13.540Z,12.00
2022-09-06T21:08:03.436Z,11.50
2022-09-06T21:11:00.639Z,11.90
2022-09-06T21:13:52.897Z,12.00
2022-09-06T21:16:42.436Z,11.50
2022-09-06T21:19:31.885Z,11.70
2022-09-06T21:22:21.314Z,12.40
2022-09-06T21:25:11.306Z,11.93
2022-09-06T21:28:00.780Z,11.43
2022-09-06T21:31:02.958Z,16.63
2022-09-06T21:33:53.714Z,18.27
2022-09-06T21:36:43.642Z,15.93
2022-09-06T21:39:33.070Z,14.83
2022-09-06T21:42:22.531Z,13.37
2022-09-06T21:45:13.073Z,13.87
2022-09-06T21:48:04.498Z,13.00
2022-09-06T21:50:54.225Z,12.23
2022-09-06T21:53:45.840Z,12.50
2022-09-06T21:56:37.312Z,12.27
2022-09-06T21:59:26.814Z,12.07
2022-09-06T22:02:16.278Z,12.43
2022-09-06T22:05:07.900Z,12.63
2022-09-06T22:07:57.415Z,12.80
2022-09-06T22:10:48.400Z,12.40
2022-09-06T22:13:37.819Z,12.50
2022-09-06T22:16:28.566Z,12.17
2022-09-06T22:19:18.113Z,12.13
2022-09-06T22:22:08.911Z,12.07
2022-09-06T22:24:58.392Z,12.40
2022-09-06T22:27:47.781Z,12.70
2022-09-06T22:30:37.252Z,12.90
2022-09-06T22:33:26.842Z,13.03
2022-09-06T22:36:16.678Z,12.83
2022-09-06T22:39:07.571Z,13.13
2022-09-06T22:42:00.763Z,13.00
2022-09-06T22:44:50.223Z,12.30
2022-09-06T22:47:39.670Z,12.80
2022-09-06T22:50:29.130Z,12.30
2022-09-06T22:53:19.064Z,12.30
2022-09-06T22:56:09.948Z,13.63
2022-09-06T22:59:01.132Z,13.07
2022-09-06T23:01:50.553Z,12.80
2022-09-06T23:04:40.017Z,13.27
2022-09-06T23:07:29.412Z,13.33
2022-09-06T23:10:19.492Z,12.70
2022-09-06T23:13:11.231Z,12.20
2022-09-06T23:16:05.264Z,13.00
2022-09-06T23:18:55.378Z,13.17
2022-09-06T23:21:44.779Z,12.90
2022-09-06T23:24:34.479Z,13.40
2022-09-06T23:27:23.855Z,13.33
2022-09-06T23:30:14.856Z,13.97
2022-09-06T23:33:04.320Z,13.60
2022-09-06T23:35:56.195Z,13.37
2022-09-06T23:38:45.600Z,13.47
2022-09-06T23:41:35.868Z,13.73
2022-09-06T23:44:25.578Z,14.03
2022-09-06T23:47:16.466Z,13.57
2022-09-06T23:50:07.264Z,13.73
2022-09-06T23:52:56.695Z,13.10
2022-09-06T23:55:46.481Z,13.80
2022-09-06T23:58:36.722Z,13.83
